createdAt,value
2023-11-17T00:00:14.510Z,0.85
2023-11-17T00:02:43.379Z,0.82
2023-11-17T00:05:12.089Z,0.84
2023-11-17T00:07:40.493Z,0.85
2023-11-17T00:10:09.180Z,1.17
2023-11-17T00:12:37.184Z,1.05
2023-11-17T00:15:07.874Z,0.90
2023-11-17T00:17:37.202Z,0.83
2023-11-17T00:20:07.109Z,0.91
2023-11-17T00:22:35.020Z,4.81
2023-11-17T00:25:03.343Z,5.09
2023-11-17T00:27:31.323Z,1.48
2023-11-17T00:29:59.226Z,1.03
2023-11-17T00:32:27.566Z,0.81
2023-11-17T00:34:57.072Z,1.02
2023-11-17T00:37:26.362Z,1.07
2023-11-17T00:39:54.497Z,1.16
2023-11-17T00:42:22.636Z,3.15
2023-11-17T00:44:50.562Z,4.81
2023-11-17T00:47:19.050Z,2.18
2023-11-17T00:49:47.051Z,1.90
2023-11-17T00:52:16.415Z,2.00
2023-11-17T00:54:45.025Z,1.85
2023-11-17T00:57:13.477Z,1.97
2023-11-17T00:59:41.546Z,1.73
2023-11-17T01:02:09.747Z,1.71
2023-11-17T01:04:37.765Z,1.59
2023-11-17T01:07:05.903Z,1.25
2023-11-17T01:09:35.759Z,1.01
2023-11-17T01:12:03.681Z,0.96
2023-11-17T01:14:32.931Z,0.78
2023-11-17T01:17:01.060Z,0.90
2023-11-17T01:19:29.102Z,0.88
2023-11-17T01:21:57.023Z,0.79
2023-11-17T01:24:25.032Z,0.80
2023-11-17T01:26:54.326Z,0.68
2023-11-17T01:29:22.254Z,0.66
2023-11-17T01:31:50.607Z,0.61
2023-11-17T01:34:18.749Z,0.63
2023-11-17T01:36:47.589Z,0.61
2023-11-17T01:39:15.697Z,3.16
2023-11-17T01:41:43.918Z,0.82
2023-11-17T01:44:13.227Z,0.42
2023-11-17T01:46:41.974Z,0.37
2023-11-17T01:49:13.747Z,0.48
2023-11-17T01:51:41.986Z,0.54
2023-11-17T01:54:13.350Z,0.38
2023-11-17T01:56:43.757Z,0.54
2023-11-17T01:59:13.046Z,0.55
2023-11-17T02:01:41.117Z,0.50
2023-11-17T02:04:10.222Z,0.57
2023-11-17T02:06:54.338Z,0.52
2023-11-17T02:09:36.039Z,0.54
2023-11-17T02:12:16.028Z,0.65
2023-11-17T02:14:49.604Z,0.67
2023-11-17T02:17:26.736Z,0.72
2023-11-17T02:20:00.668Z,0.63
2023-11-17T02:22:31.915Z,0.69
2023-11-17T02:25:14.464Z,0.72
2023-11-17T02:27:59.228Z,0.70
2023-11-17T02:30:31.082Z,0.56
2023-11-17T02:33:01.004Z,0.67
2023-11-17T02:35:31.610Z,0.54
2023-11-17T02:38:02.532Z,0.50
2023-11-17T02:40:33.231Z,0.55
2023-11-17T02:43:01.401Z,0.60
2023-11-17T02:45:37.508Z,0.48
2023-11-17T02:48:15.575Z,0.64
2023-11-17T02:51:04.975Z,0.61
2023-11-17T02:53:36.877Z,0.57
2023-11-17T02:56:05.882Z,0.54
2023-11-17T02:58:35.780Z,0.65
2023-11-17T03:01:06.462Z,0.51
2023-11-17T03:03:37.372Z,0.39
2023-11-17T03:06:07.097Z,0.42
2023-11-17T03:08:36.761Z,0.47
2023-11-17T03:11:05.535Z,0.53
2023-11-17T03:13:34.126Z,0.40
2023-11-17T03:16:02.538Z,0.39
2023-11-17T03:18:39.840Z,0.39
2023-11-17T03:21:10.950Z,0.43
2023-11-17T03:23:40.593Z,0.34
2023-11-17T03:26:08.519Z,0.37
2023-11-17T03:28:36.988Z,0.37
2023-11-17T03:31:05.842Z,0.30
2023-11-17T03:33:35.160Z,0.37
2023-11-17T03:36:04.121Z,0.33
2023-11-17T03:38:32.431Z,0.41
2023-11-17T03:41:01.176Z,0.43
2023-11-17T03:45:57.423Z,0.45
2023-11-17T03:48:25.513Z,0.39
2023-11-17T03:50:55.511Z,0.45
2023-11-17T03:53:23.599Z,0.53
2023-11-17T03:55:53.662Z,0.52
2023-11-17T03:58:22.975Z,0.43
2023-11-17T04:00:50.989Z,0.49
2023-11-17T04:03:20.931Z,0.45
2023-11-17T04:05:50.197Z,0.43
2023-11-17T04:08:19.444Z,0.39
2023-11-17T04:10:47.886Z,0.42
2023-11-17T04:13:16.788Z,0.44
2023-11-17T04:15:45.443Z,0.50
2023-11-17T04:18:14.291Z,0.52
2023-11-17T04:20:42.543Z,0.47
2023-11-17T04:23:10.495Z,0.55
2023-11-17T04:25:39.706Z,0.51
2023-11-17T04:28:07.600Z,0.43
2023-11-17T04:30:35.640Z,0.42
2023-11-17T04:33:03.700Z,0.48
2023-11-17T04:35:31.688Z,0.48
2023-11-17T04:37:59.598Z,0.46
2023-11-17T04:40:28.387Z,0.41
2023-11-17T04:42:57.748Z,0.35
2023-11-17T04:45:26.613Z,0.29
2023-11-17T04:47:54.711Z,0.46
2023-11-17T04:50:22.647Z,0.46
2023-11-17T04:52:50.627Z,0.34
2023-11-17T04:55:21.391Z,0.43
2023-11-17T04:57:49.379Z,0.49
2023-11-17T05:00:21.423Z,0.49
2023-11-17T05:02:49.358Z,0.43
2023-11-17T05:05:17.520Z,0.39
2023-11-17T05:07:45.654Z,0.35
2023-11-17T05:10:15.328Z,0.34
2023-11-17T05:12:43.526Z,0.49
2023-11-17T05:15:14.494Z,0.56
2023-11-17T05:17:49.750Z,0.47
2023-11-17T05:20:19.976Z,0.51
2023-11-17T05:22:49.905Z,0.46
2023-11-17T05:25:18.540Z,0.38
2023-11-17T05:27:48.065Z,0.55
2023-11-17T05:30:20.038Z,0.55
2023-11-17T05:32:49.972Z,0.51
2023-11-17T05:35:18.189Z,0.59
2023-11-17T05:37:46.127Z,0.61
2023-11-17T05:40:14.407Z,0.70
2023-11-17T05:42:43.008Z,0.75
2023-11-17T05:45:13.558Z,0.73
2023-11-17T05:47:42.338Z,0.90
2023-11-17T05:50:12.984Z,0.98
2023-11-17T05:52:42.616Z,0.90
2023-11-17T05:55:12.570Z,0.78
2023-11-17T05:57:43.852Z,0.86
2023-11-17T06:00:14.922Z,0.84
2023-11-17T06:02:43.902Z,0.84
2023-11-17T06:05:14.757Z,0.92
2023-11-17T06:07:44.148Z,0.81
2023-11-17T06:10:13.282Z,0.75
2023-11-17T06:12:43.352Z,0.68
2023-11-17T06:15:12.570Z,0.87
2023-11-17T06:17:40.818Z,0.78
2023-11-17T06:20:10.310Z,0.80
2023-11-17T06:22:39.589Z,0.72
2023-11-17T06:25:09.606Z,1.03
2023-11-17T06:27:38.641Z,0.91
2023-11-17T06:30:07.910Z,3.36
2023-11-17T06:32:36.003Z,1.60
2023-11-17T06:35:07.050Z,1.92
2023-11-17T06:37:35.208Z,3.13
2023-11-17T06:40:10.844Z,3.47
2023-11-17T06:42:42.477Z,1.75
2023-11-17T06:45:15.302Z,1.22
2023-11-17T06:47:44.372Z,1.06
2023-11-17T06:50:13.929Z,1.14
2023-11-17T06:52:42.923Z,1.04
2023-11-17T06:55:13.617Z,1.12
2023-11-17T06:57:44.547Z,1.10
2023-11-17T07:00:14.466Z,1.06
2023-11-17T07:02:45.743Z,0.90
2023-11-17T07:05:18.380Z,1.02
2023-11-17T07:07:48.297Z,1.76
2023-11-17T07:10:17.872Z,1.00
2023-11-17T07:12:46.091Z,0.99
2023-11-17T07:15:14.746Z,0.85
2023-11-17T07:17:43.976Z,0.86
2023-11-17T07:20:13.632Z,0.91
2023-11-17T07:22:42.315Z,1.35
2023-11-17T07:25:12.433Z,2.40
2023-11-17T07:27:42.337Z,2.44
2023-11-17T07:30:13.718Z,2.03
2023-11-17T07:32:45.090Z,1.11
2023-11-17T07:35:13.402Z,1.25
2023-11-17T07:37:41.441Z,1.18
2023-11-17T07:40:11.431Z,1.65
2023-11-17T07:42:40.695Z,1.77
2023-11-17T07:45:12.624Z,1.70
2023-11-17T07:47:42.597Z,1.40
2023-11-17T07:50:15.213Z,1.52
2023-11-17T07:52:45.347Z,1.52
2023-11-17T07:55:15.168Z,1.38
2023-11-17T07:57:43.563Z,1.25
2023-11-17T08:00:19.474Z,1.34
2023-11-17T08:02:48.290Z,1.32
2023-11-17T08:05:16.543Z,2.53
2023-11-17T08:07:47.203Z,2.17
2023-11-17T08:10:15.487Z,2.20
2023-11-17T08:12:47.843Z,1.88
2023-11-17T08:15:19.073Z,5.64
2023-11-17T08:17:48.692Z,4.58
2023-11-17T08:20:19.702Z,5.07
2023-11-17T08:22:48.442Z,3.10
2023-11-17T08:25:18.045Z,2.31
2023-11-17T08:27:46.064Z,2.20
2023-11-17T08:30:14.746Z,2.45
2023-11-17T08:32:45.128Z,2.11
2023-11-17T08:35:17.563Z,2.30
2023-11-17T08:37:46.528Z,2.40
2023-11-17T08:40:19.404Z,6.79
2023-11-17T08:42:50.787Z,9.89
2023-11-17T08:45:19.801Z,5.36
2023-11-17T08:47:54.820Z,3.70
2023-11-17T08:50:23.246Z,3.10
2023-11-17T08:52:51.185Z,3.16
2023-11-17T08:55:19.251Z,2.94
2023-11-17T08:57:47.899Z,2.72
2023-11-17T09:00:19.873Z,2.58
2023-11-17T09:02:50.288Z,2.33
2023-11-17T09:05:21.133Z,2.26
2023-11-17T09:07:51.225Z,2.22
2023-11-17T09:10:21.230Z,2.10
2023-11-17T09:12:50.897Z,2.21
2023-11-17T09:15:20.434Z,2.05
2023-11-17T09:17:52.839Z,1.91
2023-11-17T09:20:25.152Z,2.78
2023-11-17T09:22:54.301Z,6.02
2023-11-17T09:25:24.457Z,5.64
2023-11-17T09:27:55.366Z,3.18
2023-11-17T09:30:23.741Z,1.94
2023-11-17T09:32:56.134Z,1.92
2023-11-17T09:35:28.638Z,2.00
2023-11-17T09:38:05.431Z,1.58
2023-11-17T09:40:35.711Z,1.82
2023-11-17T09:43:16.051Z,2.07
2023-11-17T09:45:46.515Z,1.82
2023-11-17T09:48:19.631Z,1.53
2023-11-17T09:50:52.726Z,1.36
2023-11-17T09:53:24.670Z,1.22
2023-11-17T09:55:59.636Z,1.95
2023-11-17T09:58:30.365Z,2.01
2023-11-17T10:00:58.892Z,1.33
2023-11-17T10:03:30.561Z,1.64
2023-11-17T10:06:05.750Z,1.81
2023-11-17T10:08:35.384Z,2.28
2023-11-17T10:11:04.615Z,2.28
2023-11-17T10:13:35.057Z,4.03
2023-11-17T10:16:04.498Z,2.89
2023-11-17T10:18:34.527Z,2.56
2023-11-17T10:21:05.539Z,3.27
2023-11-17T10:23:34.409Z,2.20
2023-11-17T10:26:02.564Z,1.76
2023-11-17T10:28:30.477Z,1.47
2023-11-17T10:31:02.709Z,1.53
2023-11-17T10:33:35.693Z,1.36
2023-11-17T10:36:11.831Z,2.71
2023-11-17T10:38:43.087Z,37.84
2023-11-17T10:41:18.579Z,62.03
2023-11-17T10:43:51.641Z,35.90
2023-11-17T10:46:25.543Z,22.75
2023-11-17T10:48:53.901Z,15.85
2023-11-17T10:51:23.464Z,5.54
2023-11-17T10:54:05.573Z,4.66
2023-11-17T10:56:35.307Z,2.81
2023-11-17T10:59:04.730Z,2.12
2023-11-17T11:01:37.030Z,2.11
2023-11-17T11:04:10.547Z,2.25
2023-11-17T11:06:42.923Z,2.68
2023-11-17T11:09:17.666Z,1.88
2023-11-17T11:11:49.471Z,2.02
2023-11-17T11:14:18.807Z,1.87
2023-11-17T11:16:49.613Z,1.80
2023-11-17T11:19:24.630Z,1.83
2023-11-17T11:22:02.481Z,1.90
2023-11-17T11:24:37.742Z,6.63
2023-11-17T11:27:08.218Z,2.73
2023-11-17T11:29:40.194Z,1.76
2023-11-17T11:32:09.810Z,1.67
2023-11-17T11:34:40.042Z,7.42
2023-11-17T11:37:11.792Z,3.84
2023-11-17T11:39:39.976Z,1.62
2023-11-17T11:42:08.894Z,2.43
2023-11-17T11:44:37.869Z,1.80
2023-11-17T11:47:06.524Z,1.76
2023-11-17T11:49:36.604Z,3.71
2023-11-17T11:52:15.477Z,3.84
2023-11-17T11:54:46.567Z,2.51
2023-11-17T11:57:31.379Z,2.13
2023-11-17T12:00:07.526Z,2.04
2023-11-17T12:02:53.760Z,2.03
2023-11-17T12:05:29.967Z,1.96
2023-11-17T12:07:59.550Z,2.23
2023-11-17T12:10:37.204Z,3.07
2023-11-17T12:13:08.533Z,5.02
2023-11-17T12:15:36.887Z,9.22
2023-11-17T12:18:07.700Z,5.07
2023-11-17T12:20:41.115Z,3.29
2023-11-17T12:23:12.305Z,3.87
2023-11-17T12:25:41.413Z,4.58
2023-11-17T12:28:12.713Z,4.09
2023-11-17T12:30:41.382Z,3.61
2023-11-17T12:33:11.236Z,3.25
2023-11-17T12:35:42.480Z,3.09
2023-11-17T12:38:17.472Z,3.31
2023-11-17T12:40:45.567Z,3.58
2023-11-17T12:43:14.123Z,3.42
2023-11-17T12:45:43.154Z,3.45
2023-11-17T12:48:15.542Z,3.22
2023-11-17T12:50:43.488Z,3.03
2023-11-17T12:53:11.651Z,2.41
2023-11-17T12:55:48.132Z,2.21
2023-11-17T12:58:16.300Z,1.85
2023-11-17T13:00:47.496Z,2.01
2023-11-17T13:03:16.943Z,1.87
2023-11-17T13:05:46.239Z,2.22
2023-11-17T13:08:14.738Z,2.01
2023-11-17T13:10:47.276Z,1.73
2023-11-17T13:13:16.926Z,1.75
2023-11-17T13:15:44.970Z,3.85
2023-11-17T13:18:13.436Z,4.28
2023-11-17T13:20:41.715Z,2.23
2023-11-17T13:23:10.779Z,2.06
2023-11-17T13:25:59.859Z,2.31
2023-11-17T13:28:29.796Z,2.60
2023-11-17T13:30:57.730Z,2.50
2023-11-17T13:33:42.637Z,2.21
2023-11-17T13:36:11.081Z,2.39
2023-11-17T13:39:17.154Z,2.64
2023-11-17T13:41:47.161Z,2.79
2023-11-17T13:44:28.991Z,2.79
2023-11-17T13:47:02.107Z,3.14
2023-11-17T13:49:35.774Z,3.09
2023-11-17T13:52:10.273Z,3.04
2023-11-17T13:54:38.946Z,7.78
2023-11-17T13:57:10.148Z,5.83
2023-11-17T13:59:41.634Z,3.49
2023-11-17T14:02:11.517Z,3.91
2023-11-17T14:04:41.852Z,3.67
2023-11-17T14:07:10.522Z,3.81
2023-11-17T14:09:40.070Z,4.07
2023-11-17T14:12:09.495Z,4.66
2023-11-17T14:14:45.126Z,4.72
2023-11-17T14:17:13.790Z,5.66
2023-11-17T14:19:44.013Z,9.55
2023-11-17T14:22:11.985Z,5.51
2023-11-17T14:24:41.778Z,4.37
2023-11-17T14:27:13.233Z,4.80
2023-11-17T14:29:44.202Z,4.62
2023-11-17T14:32:16.308Z,5.76
2023-11-17T14:34:47.575Z,7.38
2023-11-17T14:37:16.118Z,4.38
2023-11-17T14:39:44.136Z,4.40
2023-11-17T14:42:12.332Z,4.73
2023-11-17T14:44:40.351Z,5.16
2023-11-17T14:47:10.172Z,4.77
2023-11-17T14:49:39.405Z,4.89
2023-11-17T14:52:08.956Z,4.45
2023-11-17T14:54:37.921Z,4.57
2023-11-17T14:57:07.376Z,5.32
2023-11-17T14:59:36.061Z,4.71
2023-11-17T15:02:04.502Z,5.46
2023-11-17T15:04:35.761Z,5.23
2023-11-17T15:07:05.706Z,5.38
2023-11-17T15:09:35.069Z,12.44
2023-11-17T15:12:05.319Z,17.28
2023-11-17T15:14:33.384Z,11.11
2023-11-17T15:17:01.473Z,6.84
2023-11-17T15:19:29.961Z,5.59
2023-11-17T15:21:59.449Z,5.37
2023-11-17T15:24:28.591Z,5.70
2023-11-17T15:26:56.920Z,5.63
2023-11-17T15:29:28.969Z,6.33
2023-11-17T15:31:59.334Z,6.51
2023-11-17T15:34:29.783Z,6.39
2023-11-17T15:36:59.913Z,6.35
2023-11-17T15:39:31.818Z,7.30
2023-11-17T15:42:00.175Z,12.98
2023-11-17T15:44:29.522Z,7.11
2023-11-17T15:47:00.561Z,5.75
2023-11-17T15:49:30.073Z,5.81
2023-11-17T15:51:59.676Z,7.05
2023-11-17T15:54:27.621Z,8.29
2023-11-17T15:56:56.905Z,7.41
2023-11-17T15:59:25.040Z,9.00
2023-11-17T16:01:55.928Z,7.61
2023-11-17T16:04:25.302Z,6.83
2023-11-17T16:06:57.059Z,6.96
2023-11-17T16:09:29.722Z,7.33
2023-11-17T16:11:57.982Z,8.04
2023-11-17T16:14:25.900Z,7.17
2023-11-17T16:16:54.170Z,6.35
2023-11-17T16:19:22.414Z,5.83
2023-11-17T16:21:50.467Z,5.89
2023-11-17T16:24:18.428Z,6.03
2023-11-17T16:26:47.718Z,6.08
2023-11-17T16:29:15.772Z,6.16
2023-11-17T16:31:43.855Z,5.88
2023-11-17T16:34:12.411Z,5.54
2023-11-17T16:36:46.716Z,5.56
2023-11-17T16:39:19.896Z,5.53
2023-11-17T16:41:50.759Z,4.67
2023-11-17T16:44:18.882Z,4.56
2023-11-17T16:46:50.868Z,4.76
2023-11-17T16:49:20.855Z,5.14
2023-11-17T16:51:49.395Z,8.41
2023-11-17T16:54:18.516Z,7.87
2023-11-17T16:56:46.788Z,4.42
2023-11-17T16:59:17.011Z,4.43
2023-11-17T17:01:45.559Z,4.82
2023-11-17T17:04:13.781Z,5.24
2023-11-17T17:06:43.382Z,6.14
2023-11-17T17:09:15.110Z,6.73
2023-11-17T17:11:46.342Z,5.50
2023-11-17T17:14:20.715Z,4.97
2023-11-17T17:16:52.704Z,4.73
2023-11-17T17:19:23.171Z,4.28
2023-11-17T17:21:52.384Z,4.56
2023-11-17T17:24:20.694Z,8.14
2023-11-17T17:26:49.420Z,8.13
2023-11-17T17:29:18.772Z,4.80
2023-11-17T17:31:46.930Z,4.67
2023-11-17T17:34:17.063Z,4.69
2023-11-17T17:36:45.214Z,4.61
2023-11-17T17:39:17.661Z,4.77
2023-11-17T17:41:47.742Z,4.51
2023-11-17T17:44:20.709Z,4.95
2023-11-17T17:46:51.592Z,5.47
2023-11-17T17:49:19.770Z,5.75
2023-11-17T17:51:47.687Z,4.67
2023-11-17T17:54:15.775Z,4.74
2023-11-17T17:56:44.453Z,4.63
2023-11-17T17:59:14.264Z,4.97
2023-11-17T18:01:45.284Z,5.12
2023-11-17T18:04:14.598Z,8.44
2023-11-17T18:06:43.550Z,5.51
2023-11-17T18:09:13.611Z,4.68
2023-11-17T18:11:41.779Z,3.90
2023-11-17T18:14:11.239Z,3.66
2023-11-17T18:16:39.288Z,3.55
2023-11-17T18:19:08.626Z,3.31
2023-11-17T18:21:36.577Z,4.37
2023-11-17T18:24:06.411Z,4.61
2023-11-17T18:26:42.147Z,5.71
2023-11-17T18:29:18.121Z,3.75
2023-11-17T18:31:47.128Z,4.00
2023-11-17T18:34:17.185Z,4.83
2023-11-17T18:36:45.583Z,5.13
2023-11-17T18:39:13.792Z,4.43
2023-11-17T18:41:42.096Z,4.78
2023-11-17T18:44:10.155Z,4.00
2023-11-17T18:46:40.733Z,3.91
2023-11-17T18:49:10.863Z,3.69
2023-11-17T18:51:40.646Z,3.49
2023-11-17T18:54:10.934Z,3.72
2023-11-17T18:56:38.936Z,4.41
2023-11-17T18:59:07.352Z,4.44
2023-11-17T19:01:35.507Z,3.96
2023-11-17T19:04:04.268Z,3.88
2023-11-17T19:06:32.491Z,4.00
2023-11-17T19:09:04.836Z,4.96
2023-11-17T19:11:32.934Z,13.01
2023-11-17T19:14:01.026Z,8.38
2023-11-17T19:16:31.480Z,7.58
2023-11-17T19:18:59.507Z,5.24
2023-11-17T19:21:28.011Z,4.77
2023-11-17T19:23:56.327Z,5.25
2023-11-17T19:26:25.545Z,4.97
2023-11-17T19:28:53.477Z,4.62
2023-11-17T19:31:22.575Z,4.55
2023-11-17T19:33:50.532Z,5.06
2023-11-17T19:36:18.625Z,11.80
2023-11-17T19:38:47.726Z,13.15
2023-11-17T19:41:19.780Z,5.30
2023-11-17T19:43:50.404Z,5.23
2023-11-17T19:46:18.572Z,5.26
2023-11-17T19:48:47.566Z,5.46
2023-11-17T19:51:16.826Z,5.65
2023-11-17T19:53:46.182Z,6.25
2023-11-17T19:56:17.248Z,8.95
2023-11-17T19:58:45.537Z,6.35
2023-11-17T20:01:17.396Z,5.74
2023-11-17T20:03:45.455Z,5.74
2023-11-17T20:06:17.938Z,5.83
2023-11-17T20:08:46.279Z,5.48
2023-11-17T20:11:16.310Z,5.25
2023-11-17T20:13:44.285Z,5.28
2023-11-17T20:16:14.058Z,5.69
2023-11-17T20:18:42.188Z,6.09
2023-11-17T20:21:10.840Z,6.01
2023-11-17T20:23:38.756Z,10.00
2023-11-17T20:26:08.237Z,9.91
2023-11-17T20:28:37.031Z,6.57
2023-11-17T20:31:07.191Z,6.50
2023-11-17T20:33:36.689Z,6.50
2023-11-17T20:36:06.409Z,6.50
2023-11-17T20:38:38.004Z,6.59
2023-11-17T20:41:10.632Z,6.74
2023-11-17T20:43:38.732Z,7.05
2023-11-17T20:46:07.070Z,7.54
2023-11-17T20:48:36.349Z,7.24
2023-11-17T20:51:05.544Z,6.67
2023-11-17T20:53:34.581Z,8.59
2023-11-17T20:56:03.845Z,7.90
2023-11-17T20:58:31.829Z,8.01
2023-11-17T21:01:00.398Z,7.00
2023-11-17T21:03:28.556Z,6.99
2023-11-17T21:05:58.066Z,7.64
2023-11-17T21:08:25.970Z,7.93
2023-11-17T21:10:53.897Z,6.69
2023-11-17T21:13:21.920Z,6.55
2023-11-17T21:15:49.865Z,5.92
2023-11-17T21:18:17.804Z,5.60
2023-11-17T21:20:46.008Z,6.24
2023-11-17T21:23:16.873Z,6.06
2023-11-17T21:25:45.095Z,5.74
2023-11-17T21:28:13.950Z,5.49
2023-11-17T21:30:43.787Z,5.71
2023-11-17T21:33:12.138Z,5.64
2023-11-17T21:35:40.333Z,5.77
2023-11-17T21:38:08.902Z,5.61
2023-11-17T21:40:38.262Z,5.88
2023-11-17T21:43:06.220Z,5.67
2023-11-17T21:45:36.517Z,6.09
2023-11-17T21:48:05.437Z,6.30
2023-11-17T21:50:35.089Z,5.90
2023-11-17T21:53:03.240Z,5.51
2023-11-17T21:55:31.223Z,5.83
2023-11-17T21:58:00.637Z,6.01
2023-11-17T22:00:29.279Z,6.06
2023-11-17T22:02:57.403Z,6.12
2023-11-17T22:05:29.095Z,5.79
2023-11-17T22:07:57.304Z,6.22
2023-11-17T22:10:27.557Z,5.92
2023-11-17T22:12:59.666Z,8.00
2023-11-17T22:15:29.006Z,8.53
2023-11-17T22:17:56.966Z,5.74
2023-11-17T22:20:28.714Z,5.42
2023-11-17T22:22:56.729Z,5.53
2023-11-17T22:25:24.787Z,5.20
2023-11-17T22:27:56.733Z,5.29
2023-11-17T22:30:26.868Z,5.50
2023-11-17T22:32:59.806Z,6.11
2023-11-17T22:35:28.857Z,13.09
2023-11-17T22:37:57.031Z,10.78
2023-11-17T22:40:25.482Z,7.30
2023-11-17T22:42:54.390Z,12.14
2023-11-17T22:45:23.193Z,7.81
2023-11-17T22:47:52.830Z,6.74
2023-11-17T22:50:23.823Z,6.73
2023-11-17T22:52:53.671Z,6.76
2023-11-17T22:55:22.886Z,6.80
2023-11-17T22:57:51.428Z,7.70
2023-11-17T23:03:15.392Z,8.07
2023-11-17T23:05:44.386Z,7.97
2023-11-17T23:08:14.260Z,7.57
2023-11-17T23:10:43.063Z,7.62
2023-11-17T23:13:12.594Z,7.86
2023-11-17T23:15:40.746Z,7.53
2023-11-17T23:18:10.775Z,7.43
2023-11-17T23:20:40.234Z,7.97
2023-11-17T23:23:08.208Z,7.68
2023-11-17T23:25:38.119Z,7.86
2023-11-17T23:28:07.202Z,7.66
2023-11-17T23:30:36.077Z,7.97
2023-11-17T23:33:08.552Z,8.07
2023-11-17T23:35:37.270Z,7.81
2023-11-17T23:38:09.039Z,7.43
2023-11-17T23:40:37.165Z,7.78
2023-11-17T23:43:05.486Z,8.04
2023-11-17T23:45:33.457Z,7.91
2023-11-17T23:48:01.535Z,7.71
2023-11-17T23:50:30.172Z,11.64
2023-11-17T23:52:58.275Z,13.08
2023-11-17T23:55:27.779Z,7.90
2023-11-17T23:57:56.093Z,7.24
